createdAt,value
2016-08-29T00:00:08.833Z,0
2016-08-29T00:01:09.462Z,0
2016-08-29T00:02:10.086Z,0
2016-08-29T00:03:10.702Z,0
2016-08-29T00:04:11.325Z,0
2016-08-29T00:05:11.941Z,0
2016-08-29T00:06:12.562Z,0
2016-08-29T00:07:13.182Z,0
2016-08-29T00:08:13.813Z,0
2016-08-29T00:09:14.436Z,0
2016-08-29T00:10:15.053Z,0
2016-08-29T00:11:15.675Z,0
2016-08-29T00:12:16.299Z,0
2016-08-29T00:13:16.923Z,0
2016-08-29T00:14:17.553Z,0
2016-08-29T00:15:18.177Z,0
2016-08-29T00:16:18.816Z,0
2016-08-29T00:17:19.441Z,0
2016-08-29T00:18:20.064Z,0
2016-08-29T00:19:20.688Z,0
2016-08-29T00:20:21.319Z,0
2016-08-29T00:21:21.941Z,0
2016-08-29T00:22:22.566Z,0
2016-08-29T00:23:23.195Z,0
2016-08-29T00:24:23.816Z,0
2016-08-29T00:25:24.440Z,0
2016-08-29T00:26:25.063Z,0
2016-08-29T00:27:25.679Z,0
2016-08-29T00:28:26.306Z,0
2016-08-29T00:29:26.950Z,0
2016-08-29T00:30:27.570Z,0
2016-08-29T00:31:28.187Z,0
2016-08-29T00:32:28.807Z,0
2016-08-29T00:33:29.440Z,0
2016-08-29T00:34:30.072Z,0
2016-08-29T00:35:30.712Z,0
2016-08-29T00:36:31.354Z,0
2016-08-29T00:37:31.992Z,0
2016-08-29T00:38:32.611Z,0
2016-08-29T00:39:33.237Z,0
2016-08-29T00:40:33.868Z,0
2016-08-29T00:41:34.491Z,0
2016-08-29T00:42:35.110Z,0
2016-08-29T00:43:35.731Z,0
2016-08-29T00:44:36.354Z,0
2016-08-29T00:45:36.982Z,0
2016-08-29T00:46:37.633Z,0
2016-08-29T00:47:38.259Z,0
2016-08-29T00:48:38.889Z,0
2016-08-29T00:49:39.509Z,0
2016-08-29T00:50:40.134Z,0
2016-08-29T00:51:40.757Z,0
2016-08-29T00:52:41.379Z,0
2016-08-29T00:53:42.026Z,0
2016-08-29T00:54:42.658Z,0
2016-08-29T00:55:43.309Z,0
2016-08-29T00:56:43.932Z,0
2016-08-29T00:57:44.552Z,0
2016-08-29T00:58:45.176Z,0
2016-08-29T00:59:45.804Z,0
2016-08-29T01:00:46.426Z,0
2016-08-29T01:01:47.046Z,0
2016-08-29T01:02:47.667Z,0
2016-08-29T01:03:48.298Z,0
2016-08-29T01:04:48.924Z,0
2016-08-29T01:05:49.557Z,0
2016-08-29T01:06:50.174Z,0
2016-08-29T01:07:50.808Z,0
2016-08-29T01:08:51.445Z,0
2016-08-29T01:09:52.076Z,0
2016-08-29T01:10:52.699Z,0
2016-08-29T01:11:53.323Z,0
2016-08-29T01:12:53.942Z,0
2016-08-29T01:13:54.576Z,0
2016-08-29T01:14:55.195Z,0
2016-08-29T01:15:55.830Z,0
2016-08-29T01:16:56.465Z,0
2016-08-29T01:17:57.090Z,0
2016-08-29T01:18:57.709Z,0
2016-08-29T01:19:58.329Z,0
2016-08-29T01:20:58.956Z,0
2016-08-29T01:21:59.573Z,0
2016-08-29T01:23:00.192Z,0
2016-08-29T01:24:00.817Z,0
2016-08-29T01:25:01.437Z,0
2016-08-29T01:26:02.057Z,0
2016-08-29T01:27:02.680Z,0
2016-08-29T01:28:03.314Z,0
2016-08-29T01:29:03.942Z,0
2016-08-29T01:30:04.575Z,0
2016-08-29T01:31:05.189Z,0
2016-08-29T01:32:05.829Z,0
2016-08-29T01:33:06.454Z,0
2016-08-29T01:34:07.088Z,0
2016-08-29T01:35:07.712Z,0
2016-08-29T01:36:08.331Z,0
2016-08-29T01:37:08.955Z,0
2016-08-29T01:38:09.602Z,0
2016-08-29T01:39:10.212Z,0
2016-08-29T01:40:10.849Z,0
2016-08-29T01:41:11.476Z,0
2016-08-29T01:42:12.098Z,0
2016-08-29T01:43:12.725Z,0
2016-08-29T01:44:13.345Z,0
2016-08-29T01:45:13.960Z,0
2016-08-29T01:46:14.587Z,0
2016-08-29T01:47:15.214Z,0
2016-08-29T01:48:15.841Z,0
2016-08-29T01:49:16.469Z,0
2016-08-29T01:50:17.114Z,0
2016-08-29T01:51:17.730Z,0
2016-08-29T01:52:18.347Z,0
2016-08-29T01:53:18.970Z,0
2016-08-29T01:54:19.591Z,0
2016-08-29T01:55:20.214Z,0
2016-08-29T01:56:20.837Z,0
2016-08-29T01:57:28.404Z,0
2016-08-29T01:58:29.058Z,0
2016-08-29T01:59:29.670Z,0
2016-08-29T02:00:30.292Z,0
2016-08-29T02:01:30.919Z,0
2016-08-29T02:02:31.570Z,0
2016-08-29T02:03:32.193Z,0
2016-08-29T02:04:32.828Z,0
2016-08-29T02:05:33.443Z,0
2016-08-29T02:06:34.064Z,0
2016-08-29T02:07:34.687Z,0
2016-08-29T02:08:35.308Z,0
2016-08-29T02:09:35.923Z,0
2016-08-29T02:10:36.549Z,0
2016-08-29T02:11:37.169Z,0
2016-08-29T02:12:37.794Z,0
2016-08-29T02:13:38.417Z,0
2016-08-29T02:14:39.044Z,0
2016-08-29T02:15:39.664Z,0
2016-08-29T02:16:40.284Z,0
2016-08-29T02:17:40.909Z,0
2016-08-29T02:18:41.558Z,0
2016-08-29T02:19:42.194Z,0
2016-08-29T02:20:42.814Z,0
2016-08-29T02:21:43.441Z,0
2016-08-29T02:22:44.073Z,0
2016-08-29T02:23:44.709Z,0
2016-08-29T02:24:45.338Z,0
2016-08-29T02:25:45.963Z,0
2016-08-29T02:26:46.587Z,0
2016-08-29T02:27:47.221Z,0
2016-08-29T02:28:47.848Z,0
2016-08-29T02:29:48.461Z,0
2016-08-29T02:30:49.086Z,0
2016-08-29T02:31:49.711Z,0
2016-08-29T02:32:50.353Z,0
2016-08-29T02:33:50.999Z,0
2016-08-29T02:34:51.630Z,0
2016-08-29T02:35:52.251Z,0
2016-08-29T02:36:52.878Z,0
2016-08-29T02:37:53.501Z,0
2016-08-29T02:38:54.123Z,0
2016-08-29T02:39:54.751Z,0
2016-08-29T02:40:55.367Z,0
2016-08-29T02:41:56.028Z,0
2016-08-29T02:42:56.662Z,0
2016-08-29T02:43:57.285Z,0
2016-08-29T02:44:57.933Z,0
2016-08-29T02:45:58.561Z,0
2016-08-29T02:46:59.197Z,0
2016-08-29T02:47:59.838Z,0
2016-08-29T02:49:00.472Z,0
2016-08-29T02:50:01.111Z,0
2016-08-29T02:51:01.727Z,0
2016-08-29T02:52:02.353Z,0
2016-08-29T02:53:02.980Z,0
2016-08-29T02:54:03.607Z,0
2016-08-29T02:55:04.228Z,0
2016-08-29T02:56:04.849Z,0
2016-08-29T02:57:05.502Z,0
2016-08-29T02:58:06.140Z,0
2016-08-29T02:59:06.768Z,0
2016-08-29T03:00:07.396Z,0
2016-08-29T03:01:08.016Z,0
2016-08-29T03:02:08.641Z,0
2016-08-29T03:03:09.262Z,0
2016-08-29T03:04:09.908Z,0
2016-08-29T03:05:10.529Z,0
2016-08-29T03:06:11.153Z,0
2016-08-29T03:07:11.788Z,0
2016-08-29T03:08:12.413Z,0
2016-08-29T03:09:13.042Z,0
2016-08-29T03:10:13.679Z,0
2016-08-29T03:11:14.301Z,0
2016-08-29T03:12:14.919Z,0
2016-08-29T03:13:15.541Z,0
2016-08-29T03:14:16.170Z,0
2016-08-29T03:15:16.817Z,0
2016-08-29T03:16:17.446Z,0
2016-08-29T03:17:18.089Z,0
2016-08-29T03:18:18.712Z,0
2016-08-29T03:19:19.332Z,0
2016-08-29T03:20:19.966Z,0
2016-08-29T03:21:20.593Z,0
2016-08-29T03:22:21.209Z,0
2016-08-29T03:23:21.834Z,0
2016-08-29T03:24:22.456Z,0
2016-08-29T03:25:23.108Z,0
2016-08-29T03:26:23.743Z,0
2016-08-29T03:27:24.380Z,0
2016-08-29T03:28:25.012Z,0
2016-08-29T03:29:25.666Z,0
2016-08-29T03:30:26.285Z,0
2016-08-29T03:31:26.921Z,0
2016-08-29T03:32:27.549Z,0
2016-08-29T03:33:28.172Z,0
2016-08-29T03:34:28.809Z,0
2016-08-29T03:35:29.466Z,0
2016-08-29T03:36:30.094Z,0
2016-08-29T03:37:30.736Z,0
2016-08-29T03:38:31.365Z,0
2016-08-29T03:39:32.005Z,0
2016-08-29T03:40:32.648Z,0
2016-08-29T03:41:33.268Z,0
2016-08-29T03:42:33.892Z,0
2016-08-29T03:43:34.513Z,0
2016-08-29T03:44:35.150Z,0
2016-08-29T03:45:35.784Z,0
2016-08-29T03:46:36.416Z,0
2016-08-29T03:47:37.049Z,0
2016-08-29T03:48:37.670Z,0
2016-08-29T03:49:38.302Z,0
2016-08-29T03:50:38.922Z,0
2016-08-29T03:51:39.549Z,0
2016-08-29T03:52:40.172Z,0
2016-08-29T03:53:40.797Z,0
2016-08-29T03:54:41.424Z,0
2016-08-29T03:55:42.048Z,0
2016-08-29T03:56:42.677Z,0
2016-08-29T03:57:43.318Z,0
2016-08-29T03:58:43.936Z,0
2016-08-29T03:59:44.570Z,0
2016-08-29T04:00:45.212Z,0
2016-08-29T04:01:45.846Z,0
2016-08-29T04:02:46.461Z,0
2016-08-29T04:03:47.088Z,0
2016-08-29T04:04:47.728Z,0
2016-08-29T04:05:48.364Z,4
2016-08-29T04:06:48.995Z,4
2016-08-29T04:07:49.613Z,4
2016-08-29T04:08:50.236Z,8
2016-08-29T04:09:50.854Z,4
2016-08-29T04:10:51.489Z,12
2016-08-29T04:11:52.106Z,12
2016-08-29T04:12:52.730Z,12
2016-08-29T04:13:53.351Z,8
2016-08-29T04:14:53.990Z,8
2016-08-29T04:15:54.617Z,12
2016-08-29T04:16:55.247Z,8
2016-08-29T04:17:55.875Z,12
2016-08-29T04:18:56.496Z,8
2016-08-29T04:19:57.123Z,12
2016-08-29T04:20:57.748Z,12
2016-08-29T04:21:58.377Z,8
2016-08-29T04:22:59.003Z,12
2016-08-29T04:23:59.624Z,20
2016-08-29T04:25:00.242Z,28
2016-08-29T04:26:00.866Z,36
2016-08-29T04:27:01.543Z,44
2016-08-29T04:28:02.169Z,64
2016-08-29T04:29:02.800Z,76
2016-08-29T04:30:03.425Z,76
2016-08-29T04:31:04.040Z,72
2016-08-29T04:32:04.659Z,72
2016-08-29T04:33:05.279Z,68
2016-08-29T04:34:05.908Z,72
2016-08-29T04:35:06.545Z,72
2016-08-29T04:36:07.173Z,76
2016-08-29T04:37:07.815Z,96
2016-08-29T04:38:08.440Z,108
2016-08-29T04:39:09.068Z,112
2016-08-29T04:40:09.722Z,120
2016-08-29T04:41:10.364Z,132
2016-08-29T04:42:10.987Z,148
2016-08-29T04:43:11.608Z,152
2016-08-29T04:44:12.238Z,176
2016-08-29T04:45:12.873Z,204
2016-08-29T04:46:13.972Z,216
2016-08-29T04:47:14.601Z,216
2016-08-29T04:48:15.237Z,232
2016-08-29T04:49:15.858Z,244
2016-08-29T04:50:16.495Z,276
2016-08-29T04:51:17.188Z,300
2016-08-29T04:52:17.826Z,304
2016-08-29T04:53:18.447Z,340
2016-08-29T04:54:19.068Z,324
2016-08-29T04:55:19.692Z,320
2016-08-29T04:56:20.326Z,332
2016-08-29T04:57:20.956Z,344
2016-08-29T04:58:21.582Z,352
2016-08-29T04:59:22.205Z,364
2016-08-29T05:00:22.889Z,380
2016-08-29T05:01:23.508Z,400
2016-08-29T05:02:24.137Z,412
2016-08-29T05:03:24.758Z,424
2016-08-29T05:04:25.388Z,408
2016-08-29T05:05:26.027Z,412
2016-08-29T05:06:26.660Z,444
2016-08-29T05:07:27.297Z,396
2016-08-29T05:08:27.925Z,400
2016-08-29T05:09:28.546Z,468
2016-08-29T05:10:29.185Z,516
2016-08-29T05:11:29.831Z,488
2016-08-29T05:12:30.465Z,540
2016-08-29T05:13:31.088Z,560
2016-08-29T05:14:31.720Z,528
2016-08-29T05:15:32.356Z,592
2016-08-29T05:16:32.981Z,632
2016-08-29T05:17:33.628Z,768
2016-08-29T05:18:34.277Z,696
2016-08-29T05:19:34.907Z,712
2016-08-29T05:20:35.543Z,648
2016-08-29T05:21:36.172Z,640
2016-08-29T05:22:36.810Z,620
2016-08-29T05:23:37.431Z,620
2016-08-29T05:24:38.068Z,592
2016-08-29T05:25:38.681Z,584
2016-08-29T05:26:39.322Z,596
2016-08-29T05:27:39.960Z,592
2016-08-29T05:28:40.608Z,548
2016-08-29T05:29:41.229Z,580
2016-08-29T05:30:41.869Z,580
2016-08-29T05:31:42.504Z,548
2016-08-29T05:32:43.128Z,604
2016-08-29T05:33:43.749Z,676
2016-08-29T05:34:44.377Z,692
2016-08-29T05:35:45.148Z,608
2016-08-29T05:36:45.778Z,556
2016-08-29T05:37:46.405Z,504
2016-08-29T05:38:47.036Z,600
2016-08-29T05:39:47.671Z,728
2016-08-29T05:40:48.297Z,732
2016-08-29T05:41:48.926Z,680
2016-08-29T05:42:49.554Z,788
2016-08-29T05:43:50.197Z,740
2016-08-29T05:44:50.835Z,628
2016-08-29T05:45:51.454Z,484
2016-08-29T05:46:52.081Z,584
2016-08-29T05:47:52.709Z,588
2016-08-29T05:48:53.337Z,592
2016-08-29T05:49:53.969Z,624
2016-08-29T05:50:54.589Z,628
2016-08-29T05:51:55.212Z,444
2016-08-29T05:52:55.836Z,436
2016-08-29T05:53:56.462Z,400
2016-08-29T05:54:57.086Z,424
2016-08-29T05:55:57.709Z,336
2016-08-29T05:56:58.344Z,420
2016-08-29T05:57:58.968Z,400
2016-08-29T05:58:59.602Z,456
2016-08-29T06:00:00.236Z,524
2016-08-29T06:01:00.976Z,492
2016-08-29T06:02:01.601Z,640
2016-08-29T06:03:02.276Z,692
2016-08-29T06:04:02.934Z,604
2016-08-29T06:05:03.578Z,584
2016-08-29T06:06:04.194Z,532
2016-08-29T06:07:04.843Z,584
2016-08-29T06:08:05.464Z,532
2016-08-29T06:09:06.087Z,536
2016-08-29T06:10:06.713Z,692
2016-08-29T06:11:07.347Z,660
2016-08-29T06:12:08.019Z,736
2016-08-29T06:13:08.687Z,848
2016-08-29T06:14:09.306Z,776
2016-08-29T06:15:10.074Z,732
2016-08-29T06:16:10.709Z,564
2016-08-29T06:17:11.338Z,480
2016-08-29T06:18:11.967Z,484
2016-08-29T06:19:12.603Z,476
2016-08-29T06:20:13.232Z,432
2016-08-29T06:21:14.147Z,664
2016-08-29T06:22:14.811Z,704
2016-08-29T06:23:15.456Z,516
2016-08-29T06:24:16.073Z,472
2016-08-29T06:25:16.702Z,616
2016-08-29T06:26:17.342Z,516
2016-08-29T06:27:17.983Z,476
2016-08-29T06:28:19.825Z,448
2016-08-29T06:29:20.602Z,504
2016-08-29T06:30:21.151Z,560
2016-08-29T06:31:21.861Z,568
2016-08-29T06:32:22.493Z,592
2016-08-29T06:33:23.116Z,664
2016-08-29T06:34:23.757Z,640
2016-08-29T06:35:24.507Z,592
2016-08-29T06:36:25.131Z,520
2016-08-29T06:37:25.760Z,764
2016-08-29T06:38:26.382Z,744
2016-08-29T06:39:27.021Z,684
2016-08-29T06:40:27.643Z,464
2016-08-29T06:41:28.279Z,416
2016-08-29T06:42:28.903Z,452
2016-08-29T06:43:29.521Z,392
2016-08-29T06:44:30.147Z,440
2016-08-29T06:45:31.200Z,440
2016-08-29T06:46:31.831Z,540
2016-08-29T06:47:32.500Z,472
2016-08-29T06:48:33.142Z,536
2016-08-29T06:49:33.781Z,776
2016-08-29T06:50:34.408Z,900
2016-08-29T06:51:35.175Z,1152
2016-08-29T06:52:35.820Z,996
2016-08-29T06:53:36.455Z,1008
2016-08-29T06:54:37.101Z,1056
2016-08-29T06:55:37.816Z,1192
2016-08-29T06:56:38.442Z,1124
2016-08-29T06:57:39.067Z,1148
2016-08-29T06:58:39.701Z,1184
2016-08-29T06:59:40.320Z,1068
2016-08-29T07:00:40.958Z,868
2016-08-29T07:01:41.579Z,692
2016-08-29T07:02:42.214Z,604
2016-08-29T07:03:42.845Z,612
2016-08-29T07:04:43.471Z,680
2016-08-29T07:05:44.111Z,764
2016-08-29T07:06:44.741Z,936
2016-08-29T07:07:45.370Z,1044
2016-08-29T07:08:45.997Z,920
2016-08-29T07:09:46.632Z,732
2016-08-29T07:10:47.264Z,688
2016-08-29T07:11:47.902Z,748
2016-08-29T07:12:48.538Z,580
2016-08-29T07:13:49.168Z,584
2016-08-29T07:14:49.820Z,628
2016-08-29T07:15:50.468Z,428
2016-08-29T07:16:51.105Z,388
2016-08-29T07:17:51.745Z,568
2016-08-29T07:18:52.380Z,544
2016-08-29T07:19:53.014Z,392
2016-08-29T07:20:53.639Z,488
2016-08-29T07:21:54.262Z,660
2016-08-29T07:22:54.895Z,476
2016-08-29T07:23:55.517Z,496
2016-08-29T07:24:56.153Z,832
2016-08-29T07:25:56.785Z,920
2016-08-29T07:26:57.436Z,1024
2016-08-29T07:27:58.065Z,1004
2016-08-29T07:28:58.695Z,872
2016-08-29T07:29:59.309Z,996
2016-08-29T07:31:00.396Z,932
2016-08-29T07:32:01.034Z,912
2016-08-29T07:33:01.685Z,1056
2016-08-29T07:34:02.329Z,1096
2016-08-29T07:35:02.954Z,1016
2016-08-29T07:36:03.607Z,844
2016-08-29T07:37:04.233Z,820
2016-08-29T07:38:04.856Z,828
2016-08-29T07:39:05.500Z,776
2016-08-29T07:40:06.133Z,872
2016-08-29T07:41:06.771Z,972
2016-08-29T07:42:07.403Z,1000
2016-08-29T07:43:08.049Z,916
2016-08-29T07:44:08.691Z,840
2016-08-29T07:45:09.419Z,684
2016-08-29T07:46:10.089Z,532
2016-08-29T07:47:10.733Z,532
2016-08-29T07:48:11.378Z,624
2016-08-29T07:49:12.008Z,720
2016-08-29T07:50:12.702Z,628
2016-08-29T07:51:13.323Z,620
2016-08-29T07:52:13.944Z,572
2016-08-29T07:53:14.573Z,512
2016-08-29T07:54:15.234Z,712
2016-08-29T07:55:15.879Z,796
2016-08-29T07:56:16.584Z,756
2016-08-29T07:57:17.206Z,944
2016-08-29T07:58:17.846Z,1144
2016-08-29T07:59:18.489Z,984
2016-08-29T08:00:19.114Z,840
2016-08-29T08:01:19.743Z,760
2016-08-29T08:02:20.362Z,724
2016-08-29T08:03:21.008Z,712
2016-08-29T08:04:21.648Z,916
2016-08-29T08:05:22.283Z,1136
2016-08-29T08:06:22.911Z,1424
2016-08-29T08:07:23.537Z,2056
2016-08-29T08:08:24.167Z,2504
2016-08-29T08:09:24.792Z,2528
2016-08-29T08:10:25.429Z,2352
2016-08-29T08:11:26.074Z,2380
2016-08-29T08:12:26.728Z,2764
2016-08-29T08:13:27.358Z,2988
2016-08-29T08:14:28.005Z,3328
2016-08-29T08:15:28.637Z,3168
2016-08-29T08:16:29.273Z,3028
2016-08-29T08:17:29.917Z,2780
2016-08-29T08:18:30.543Z,2392
2016-08-29T08:19:31.191Z,2008
2016-08-29T08:20:31.829Z,1568
2016-08-29T08:21:32.466Z,1360
2016-08-29T08:22:33.117Z,1288
2016-08-29T08:23:33.758Z,1200
2016-08-29T08:24:34.395Z,1284
2016-08-29T08:25:35.041Z,1344
2016-08-29T08:26:35.664Z,1752
2016-08-29T08:27:36.299Z,2620
2016-08-29T08:28:36.918Z,2616
2016-08-29T08:29:37.543Z,2552
2016-08-29T08:30:38.173Z,2568
2016-08-29T08:31:38.809Z,1412
2016-08-29T08:32:39.438Z,2628
2016-08-29T08:33:40.062Z,2792
2016-08-29T08:34:40.685Z,3120
2016-08-29T08:35:41.738Z,3728
2016-08-29T08:36:42.370Z,4132
2016-08-29T08:37:43.000Z,4228
2016-08-29T08:38:43.632Z,3264
2016-08-29T08:39:44.287Z,3268
2016-08-29T08:40:44.933Z,2984
2016-08-29T08:41:45.586Z,3068
2016-08-29T08:42:46.217Z,2812
2016-08-29T08:43:46.845Z,2880
2016-08-29T08:44:47.500Z,2900
2016-08-29T08:45:48.118Z,2392
2016-08-29T08:46:48.742Z,1824
2016-08-29T08:47:49.376Z,2020
2016-08-29T08:48:49.994Z,1820
2016-08-29T08:49:50.618Z,1732
2016-08-29T08:50:51.257Z,2204
2016-08-29T08:51:51.901Z,2856
2016-08-29T08:52:52.530Z,3100
2016-08-29T08:53:53.168Z,3064
2016-08-29T08:54:53.795Z,3376
2016-08-29T08:55:54.437Z,3228
2016-08-29T08:56:55.076Z,3052
2016-08-29T08:57:55.706Z,3100
2016-08-29T08:58:56.333Z,2964
2016-08-29T08:59:56.961Z,2652
2016-08-29T09:00:57.591Z,2012
2016-08-29T09:01:58.245Z,1720
2016-08-29T09:02:58.868Z,1992
2016-08-29T09:03:59.501Z,2812
2016-08-29T09:05:00.126Z,3028
2016-08-29T09:06:00.762Z,3260
2016-08-29T09:07:01.393Z,3444
2016-08-29T09:08:02.025Z,3752
2016-08-29T09:09:02.654Z,3656
2016-08-29T09:10:03.266Z,4128
2016-08-29T09:11:03.897Z,3420
2016-08-29T09:12:04.526Z,2572
2016-08-29T09:13:05.168Z,3408
2016-08-29T09:14:05.811Z,5524
2016-08-29T09:15:06.443Z,4236
2016-08-29T09:16:07.073Z,3004
2016-08-29T09:17:07.706Z,1984
2016-08-29T09:18:08.339Z,1504
2016-08-29T09:19:08.979Z,1084
2016-08-29T09:20:09.616Z,1292
2016-08-29T09:21:10.255Z,1660
2016-08-29T09:22:10.876Z,1940
2016-08-29T09:23:11.502Z,2148
2016-08-29T09:24:12.132Z,1968
2016-08-29T09:25:12.755Z,1820
2016-08-29T09:26:13.390Z,1264
2016-08-29T09:27:14.028Z,1096
2016-08-29T09:28:14.661Z,1260
2016-08-29T09:29:15.312Z,1276
2016-08-29T09:30:16.009Z,1448
2016-08-29T09:31:16.650Z,1440
2016-08-29T09:32:17.276Z,1588
2016-08-29T09:33:17.914Z,1992
2016-08-29T09:34:18.534Z,2740
2016-08-29T09:35:19.223Z,3636
2016-08-29T09:36:19.916Z,3888
2016-08-29T09:37:20.553Z,4284
2016-08-29T09:38:21.172Z,3980
2016-08-29T09:39:21.802Z,3668
2016-08-29T09:40:22.425Z,3472
2016-08-29T09:41:23.047Z,3568
2016-08-29T09:42:23.674Z,3640
2016-08-29T09:43:24.308Z,3900
2016-08-29T09:44:24.942Z,4020
2016-08-29T09:45:26.483Z,4084
2016-08-29T09:46:27.112Z,4020
2016-08-29T09:47:27.736Z,3928
2016-08-29T09:48:28.375Z,3860
2016-08-29T09:49:29.009Z,3796
2016-08-29T09:50:29.859Z,3648
2016-08-29T09:51:30.699Z,3464
2016-08-29T09:52:31.383Z,3368
2016-08-29T09:53:32.022Z,3100
2016-08-29T09:54:32.730Z,2584
2016-08-29T09:55:33.322Z,2024
2016-08-29T09:56:33.979Z,1808
2016-08-29T09:57:34.634Z,1504
2016-08-29T09:58:35.282Z,1336
2016-08-29T09:59:35.917Z,1304
2016-08-29T10:00:36.601Z,1236
2016-08-29T10:01:37.241Z,1236
2016-08-29T10:02:37.872Z,1172
2016-08-29T10:03:38.500Z,1212
2016-08-29T10:04:39.114Z,1396
2016-08-29T10:05:39.870Z,1508
2016-08-29T10:06:40.500Z,1524
2016-08-29T10:07:41.125Z,1900
2016-08-29T10:08:41.776Z,2680
2016-08-29T10:09:42.426Z,2956
2016-08-29T10:10:43.060Z,3572
2016-08-29T10:11:43.721Z,2604
2016-08-29T10:12:44.350Z,3224
2016-08-29T10:13:44.993Z,3000
2016-08-29T10:14:45.623Z,3092
2016-08-29T10:15:46.253Z,3552
2016-08-29T10:16:46.876Z,3104
2016-08-29T10:17:47.494Z,3472
2016-08-29T10:18:48.131Z,3328
2016-08-29T10:19:48.759Z,2628
2016-08-29T10:20:49.401Z,1736
2016-08-29T10:21:50.022Z,1296
2016-08-29T10:22:50.643Z,1216
2016-08-29T10:23:51.283Z,992
2016-08-29T10:24:51.902Z,840
2016-08-29T10:25:52.545Z,936
2016-08-29T10:26:53.175Z,1140
2016-08-29T10:27:53.812Z,1052
2016-08-29T10:28:54.488Z,1120
2016-08-29T10:29:55.137Z,1112
2016-08-29T10:30:55.791Z,912
2016-08-29T10:31:56.417Z,1084
2016-08-29T10:32:57.063Z,1072
2016-08-29T10:33:57.702Z,796
2016-08-29T10:34:58.343Z,792
2016-08-29T10:35:58.995Z,1072
2016-08-29T10:36:59.708Z,840
2016-08-29T10:38:00.332Z,1096
2016-08-29T10:39:01.052Z,1068
2016-08-29T10:40:01.674Z,1036
2016-08-29T10:41:02.310Z,1056
2016-08-29T10:42:02.970Z,1056
2016-08-29T10:43:03.617Z,1072
2016-08-29T10:44:04.241Z,1188
2016-08-29T10:45:05.296Z,1596
2016-08-29T10:46:05.931Z,1576
2016-08-29T10:47:06.553Z,1580
2016-08-29T10:48:07.182Z,1860
2016-08-29T10:49:07.813Z,1936
2016-08-29T10:50:08.446Z,3004
2016-08-29T10:51:09.085Z,2932
2016-08-29T10:52:09.724Z,3344
2016-08-29T10:53:10.360Z,3112
2016-08-29T10:54:10.999Z,2556
2016-08-29T10:55:11.623Z,2588
2016-08-29T10:56:12.245Z,3172
2016-08-29T10:57:12.865Z,3084
2016-08-29T10:58:13.505Z,2892
2016-08-29T10:59:14.134Z,3012
2016-08-29T11:00:14.775Z,2636
2016-08-29T11:01:15.407Z,2032
2016-08-29T11:02:16.032Z,2096
2016-08-29T11:03:16.674Z,2148
2016-08-29T11:04:17.297Z,2284
2016-08-29T11:05:17.958Z,3176
2016-08-29T11:06:18.583Z,3596
2016-08-29T11:07:19.222Z,3312
2016-08-29T11:08:19.847Z,2700
2016-08-29T11:09:20.485Z,2436
2016-08-29T11:10:21.105Z,1976
2016-08-29T11:11:21.730Z,1620
2016-08-29T11:12:22.349Z,1596
2016-08-29T11:13:22.969Z,1616
2016-08-29T11:14:23.592Z,1860
2016-08-29T11:15:24.461Z,2096
2016-08-29T11:16:25.108Z,2320
2016-08-29T11:17:25.748Z,2784
2016-08-29T11:18:26.381Z,3648
2016-08-29T11:19:27.004Z,4116
2016-08-29T11:20:28.274Z,3736
2016-08-29T11:21:28.902Z,3444
2016-08-29T11:22:29.535Z,3092
2016-08-29T11:23:30.194Z,2760
2016-08-29T11:24:30.909Z,2440
2016-08-29T11:25:31.544Z,2344
2016-08-29T11:26:32.165Z,2380
2016-08-29T11:27:32.785Z,2468
2016-08-29T11:28:33.407Z,2524
2016-08-29T11:29:34.032Z,2944
2016-08-29T11:30:34.669Z,3268
2016-08-29T11:31:35.315Z,3552
2016-08-29T11:32:35.941Z,3472
2016-08-29T11:33:36.589Z,3544
2016-08-29T11:34:37.225Z,3548
2016-08-29T11:35:37.859Z,3648
2016-08-29T11:36:38.497Z,3876
2016-08-29T11:37:39.131Z,3728
2016-08-29T11:38:39.761Z,3772
2016-08-29T11:39:40.409Z,4032
2016-08-29T11:40:41.084Z,4072
2016-08-29T11:41:41.715Z,3992
2016-08-29T11:42:42.346Z,3992
2016-08-29T11:43:42.989Z,3652
2016-08-29T11:44:43.616Z,3356
2016-08-29T11:45:44.258Z,3356
2016-08-29T11:46:44.880Z,3352
2016-08-29T11:47:45.527Z,3084
2016-08-29T11:48:46.185Z,2756
2016-08-29T11:49:46.832Z,2896
2016-08-29T11:50:47.455Z,3116
2016-08-29T11:51:48.098Z,3204
2016-08-29T11:52:48.730Z,3416
2016-08-29T11:53:49.364Z,3424
2016-08-29T11:54:49.994Z,3644
2016-08-29T11:55:50.663Z,3812
2016-08-29T11:56:51.302Z,3716
2016-08-29T11:57:51.946Z,3600
2016-08-29T11:58:52.586Z,3600
2016-08-29T11:59:53.244Z,3556
2016-08-29T12:00:53.865Z,3248
2016-08-29T12:01:54.486Z,3072
2016-08-29T12:02:55.106Z,2924
2016-08-29T12:03:55.760Z,2832
2016-08-29T12:04:56.387Z,2568
2016-08-29T12:05:57.023Z,2296
2016-08-29T12:06:57.679Z,2196
2016-08-29T12:07:58.335Z,2100
2016-08-29T12:08:59.014Z,2300
2016-08-29T12:09:59.653Z,2680
2016-08-29T12:11:00.417Z,2940
2016-08-29T12:12:01.100Z,3336
2016-08-29T12:13:01.759Z,3724
2016-08-29T12:14:02.400Z,3860
2016-08-29T12:15:03.045Z,3748
2016-08-29T12:16:03.679Z,3800
2016-08-29T12:17:04.309Z,3572
2016-08-29T12:18:04.948Z,3672
2016-08-29T12:19:05.604Z,3808
2016-08-29T12:20:06.250Z,3736
2016-08-29T12:21:06.910Z,3736
2016-08-29T12:22:07.579Z,3796
2016-08-29T12:23:08.193Z,4036
2016-08-29T12:24:08.822Z,3756
2016-08-29T12:25:09.449Z,3280
2016-08-29T12:26:10.086Z,2832
2016-08-29T12:27:10.730Z,2852
2016-08-29T12:28:11.394Z,2812
2016-08-29T12:29:12.024Z,3000
2016-08-29T12:30:12.659Z,2604
2016-08-29T12:31:13.278Z,2312
2016-08-29T12:32:13.905Z,2164
2016-08-29T12:33:14.543Z,2388
2016-08-29T12:34:15.174Z,3004
2016-08-29T12:35:15.811Z,3508
2016-08-29T12:36:16.459Z,3472
2016-08-29T12:37:17.097Z,2976
2016-08-29T12:38:17.749Z,3736
2016-08-29T12:39:18.383Z,4456
2016-08-29T12:40:19.019Z,3628
2016-08-29T12:41:19.653Z,5040
2016-08-29T12:42:20.286Z,5652
2016-08-29T12:43:20.917Z,5240
2016-08-29T12:44:21.562Z,5068
2016-08-29T12:45:22.291Z,4916
2016-08-29T12:46:22.918Z,5020
2016-08-29T12:47:23.562Z,4588
2016-08-29T12:48:24.215Z,3836
2016-08-29T12:49:24.855Z,2748
2016-08-29T12:50:25.479Z,3092
2016-08-29T12:51:26.118Z,2316
2016-08-29T12:52:26.754Z,2668
2016-08-29T12:53:27.381Z,2128
2016-08-29T12:54:28.009Z,2140
2016-08-29T12:55:28.647Z,2116
2016-08-29T12:56:29.288Z,1712
2016-08-29T12:57:29.943Z,1432
2016-08-29T12:58:30.575Z,1448
2016-08-29T12:59:31.169Z,1560
2016-08-29T13:00:31.814Z,1528
2016-08-29T13:01:32.451Z,1824
2016-08-29T13:02:33.072Z,2212
2016-08-29T13:03:33.700Z,2204
2016-08-29T13:04:34.337Z,1988
2016-08-29T13:05:35.057Z,2384
2016-08-29T13:06:35.683Z,2748
2016-08-29T13:07:36.326Z,2940
2016-08-29T13:08:36.964Z,3148
2016-08-29T13:09:37.607Z,2876
2016-08-29T13:10:38.261Z,2044
2016-08-29T13:11:38.892Z,2512
2016-08-29T13:12:39.542Z,3212
2016-08-29T13:13:40.157Z,3784
2016-08-29T13:14:40.791Z,3220
2016-08-29T13:15:41.428Z,2264
2016-08-29T13:16:42.079Z,2092
2016-08-29T13:17:42.715Z,2644
2016-08-29T13:18:43.345Z,3268
2016-08-29T13:19:43.989Z,3388
2016-08-29T13:20:44.618Z,3212
2016-08-29T13:21:45.242Z,3140
2016-08-29T13:22:45.873Z,3184
2016-08-29T13:23:46.512Z,2760
2016-08-29T13:24:47.146Z,2796
2016-08-29T13:25:47.766Z,3140
2016-08-29T13:26:48.390Z,3060
2016-08-29T13:27:49.012Z,3140
2016-08-29T13:28:49.646Z,3444
2016-08-29T13:29:50.274Z,2912
2016-08-29T13:30:50.916Z,1544
2016-08-29T13:31:51.545Z,968
2016-08-29T13:32:52.239Z,956
2016-08-29T13:33:52.863Z,948
2016-08-29T13:34:53.512Z,988
2016-08-29T13:35:54.142Z,1224
2016-08-29T13:36:54.791Z,1724
2016-08-29T13:37:55.425Z,1600
2016-08-29T13:38:56.068Z,1972
2016-08-29T13:39:56.724Z,1952
2016-08-29T13:40:57.369Z,1944
2016-08-29T13:41:57.992Z,2048
2016-08-29T13:42:58.632Z,2096
2016-08-29T13:43:59.314Z,1944
2016-08-29T13:44:59.954Z,1272
2016-08-29T13:46:00.933Z,1316
2016-08-29T13:47:01.614Z,1288
2016-08-29T13:48:02.253Z,1088
2016-08-29T13:49:02.887Z,944
2016-08-29T13:50:03.559Z,1028
2016-08-29T13:51:04.202Z,1068
2016-08-29T13:52:04.872Z,1156
2016-08-29T13:53:05.522Z,1260
2016-08-29T13:54:06.154Z,1444
2016-08-29T13:55:06.781Z,1448
2016-08-29T13:56:07.411Z,1256
2016-08-29T13:57:08.082Z,1380
2016-08-29T13:58:08.708Z,2328
2016-08-29T13:59:09.327Z,2764
2016-08-29T14:00:09.950Z,2136